sensor_id;sensor_type;location;lat;lon;timestamp;P1;durP1;ratioP1;P2;durP2;ratioP2
60211;SDS011;46079;48.686;15.598;2023-03-29T00:01:08;5.10;;;1.38;;
60211;SDS011;46079;48.686;15.598;2023-03-29T00:03:43;5.57;;;1.40;;
60211;SDS011;46079;48.686;15.598;2023-03-29T00:06:09;4.10;;;1.30;;
60211;SDS011;46079;48.686;15.598;2023-03-29T00:08:39;5.63;;;1.58;;
60211;SDS011;46079;48.686;15.598;2023-03-29T00:11:05;5.47;;;1.50;;
60211;SDS011;46079;48.686;15.598;2023-03-29T00:13:31;5.15;;;1.38;;
60211;SDS011;46079;48.686;15.598;2023-03-29T00:15:57;5.35;;;1.50;;
60211;SDS011;46079;48.686;15.598;2023-03-29T00:18:23;4.38;;;1.30;;
60211;SDS011;46079;48.686;15.598;2023-03-29T00:20:54;4.10;;;1.20;;
60211;SDS011;46079;48.686;15.598;2023-03-29T00:23:21;5.32;;;1.38;;
60211;SDS011;46079;48.686;15.598;2023-03-29T00:25:46;4.25;;;1.27;;
60211;SDS011;46079;48.686;15.598;2023-03-29T00:28:12;5.63;;;1.48;;
60211;SDS011;46079;48.686;15.598;2023-03-29T00:30:39;5.10;;;1.33;;
60211;SDS011;46079;48.686;15.598;2023-03-29T00:33:04;6.38;;;1.52;;
60211;SDS011;46079;48.686;15.598;2023-03-29T00:35:31;5.63;;;1.48;;
60211;SDS011;46079;48.686;15.598;2023-03-29T00:37:57;5.97;;;1.58;;
60211;SDS011;46079;48.686;15.598;2023-03-29T00:40:23;4.57;;;1.25;;
60211;SDS011;46079;48.686;15.598;2023-03-29T00:42:48;6.60;;;1.67;;
60211;SDS011;46079;48.686;15.598;2023-03-29T00:45:20;6.15;;;1.50;;
60211;SDS011;46079;48.686;15.598;2023-03-29T00:47:50;6.28;;;1.52;;
60211;SDS011;46079;48.686;15.598;2023-03-29T00:51:03;3.92;;;1.30;;
60211;SDS011;46079;48.686;15.598;2023-03-29T00:53:16;5.55;;;1.38;;
60211;SDS011;46079;48.686;15.598;2023-03-29T00:58:37;5.53;;;1.52;;
60211;SDS011;46079;48.686;15.598;2023-03-29T01:01:08;4.90;;;1.30;;
60211;SDS011;46079;48.686;15.598;2023-03-29T01:03:41;4.47;;;1.23;;
60211;SDS011;46079;48.686;15.598;2023-03-29T01:06:13;4.07;;;1.40;;
60211;SDS011;46079;48.686;15.598;2023-03-29T01:08:46;4.53;;;1.30;;
60211;SDS011;46079;48.686;15.598;2023-03-29T01:11:21;4.47;;;1.20;;
60211;SDS011;46079;48.686;15.598;2023-03-29T01:14:01;5.45;;;1.50;;
60211;SDS011;46079;48.686;15.598;2023-03-29T01:16:31;5.50;;;1.67;;
60211;SDS011;46079;48.686;15.598;2023-03-29T01:18:57;6.47;;;1.50;;
60211;SDS011;46079;48.686;15.598;2023-03-29T01:32:17;6.22;;;1.50;;
60211;SDS011;46079;48.686;15.598;2023-03-29T01:37:25;5.55;;;1.35;;
60211;SDS011;46079;48.686;15.598;2023-03-29T01:39:56;4.00;;;1.20;;
60211;SDS011;46079;48.686;15.598;2023-03-29T01:45:18;4.28;;;1.30;;
60211;SDS011;46079;48.686;15.598;2023-03-29T01:50:46;6.18;;;1.50;;
60211;SDS011;46079;48.686;15.598;2023-03-29T01:56:06;5.20;;;1.30;;
60211;SDS011;46079;48.686;15.598;2023-03-29T01:58:37;5.47;;;1.45;;
60211;SDS011;46079;48.686;15.598;2023-03-29T02:01:07;5.20;;;1.50;;
60211;SDS011;46079;48.686;15.598;2023-03-29T02:03:35;5.43;;;1.45;;
60211;SDS011;46079;48.686;15.598;2023-03-29T02:06:09;5.15;;;1.50;;
60211;SDS011;46079;48.686;15.598;2023-03-29T02:08:38;5.22;;;1.35;;
60211;SDS011;46079;48.686;15.598;2023-03-29T02:11:05;4.20;;;1.25;;
60211;SDS011;46079;48.686;15.598;2023-03-29T02:13:31;4.80;;;1.35;;
60211;SDS011;46079;48.686;15.598;2023-03-29T02:15:57;5.13;;;1.60;;
60211;SDS011;46079;48.686;15.598;2023-03-29T02:18:26;4.47;;;1.27;;
60211;SDS011;46079;48.686;15.598;2023-03-29T02:20:53;5.65;;;1.48;;
60211;SDS011;46079;48.686;15.598;2023-03-29T02:23:32;4.90;;;1.42;;
60211;SDS011;46079;48.686;15.598;2023-03-29T02:26:05;4.55;;;1.30;;
60211;SDS011;46079;48.686;15.598;2023-03-29T02:28:32;4.60;;;1.30;;
60211;SDS011;46079;48.686;15.598;2023-03-29T02:36:26;4.57;;;1.30;;
60211;SDS011;46079;48.686;15.598;2023-03-29T02:38:56;4.15;;;1.30;;
60211;SDS011;46079;48.686;15.598;2023-03-29T02:41:24;4.85;;;1.40;;
60211;SDS011;46079;48.686;15.598;2023-03-29T02:43:50;5.35;;;1.30;;
60211;SDS011;46079;48.686;15.598;2023-03-29T02:46:17;3.47;;;1.10;;
60211;SDS011;46079;48.686;15.598;2023-03-29T02:48:45;5.40;;;1.40;;
60211;SDS011;46079;48.686;15.598;2023-03-29T02:51:23;3.85;;;1.30;;
60211;SDS011;46079;48.686;15.598;2023-03-29T02:53:57;5.35;;;1.30;;
60211;SDS011;46079;48.686;15.598;2023-03-29T02:56:27;4.55;;;1.30;;
60211;SDS011;46079;48.686;15.598;2023-03-29T02:58:53;4.28;;;1.20;;
60211;SDS011;46079;48.686;15.598;2023-03-29T03:01:18;4.25;;;1.20;;
60211;SDS011;46079;48.686;15.598;2023-03-29T03:03:44;4.22;;;1.23;;
60211;SDS011;46079;48.686;15.598;2023-03-29T03:06:10;4.45;;;1.30;;
60211;SDS011;46079;48.686;15.598;2023-03-29T03:08:37;6.05;;;1.55;;
60211;SDS011;46079;48.686;15.598;2023-03-29T03:11:03;10.40;;;1.70;;
60211;SDS011;46079;48.686;15.598;2023-03-29T03:13:28;6.25;;;1.40;;
60211;SDS011;46079;48.686;15.598;2023-03-29T03:15:54;5.30;;;1.42;;
60211;SDS011;46079;48.686;15.598;2023-03-29T03:18:20;4.25;;;1.25;;
60211;SDS011;46079;48.686;15.598;2023-03-29T03:20:58;3.92;;;1.27;;
60211;SDS011;46079;48.686;15.598;2023-03-29T03:23:25;4.13;;;1.23;;
60211;SDS011;46079;48.686;15.598;2023-03-29T03:25:52;4.53;;;1.20;;
60211;SDS011;46079;48.686;15.598;2023-03-29T03:28:18;5.07;;;1.40;;
60211;SDS011;46079;48.686;15.598;2023-03-29T03:30:46;4.35;;;1.10;;
60211;SDS011;46079;48.686;15.598;2023-03-29T03:33:12;4.10;;;1.15;;
60211;SDS011;46079;48.686;15.598;2023-03-29T03:35:38;4.53;;;1.25;;
60211;SDS011;46079;48.686;15.598;2023-03-29T03:38:03;4.00;;;1.20;;
60211;SDS011;46079;48.686;15.598;2023-03-29T03:40:30;4.57;;;1.30;;
60211;SDS011;46079;48.686;15.598;2023-03-29T03:42:56;5.45;;;1.40;;
60211;SDS011;46079;48.686;15.598;2023-03-29T03:45:22;5.00;;;1.20;;
60211;SDS011;46079;48.686;15.598;2023-03-29T03:47:51;4.88;;;1.30;;
60211;SDS011;46079;48.686;15.598;2023-03-29T03:50:17;4.97;;;1.20;;
60211;SDS011;46079;48.686;15.598;2023-03-29T03:52:43;5.75;;;1.50;;
60211;SDS011;46079;48.686;15.598;2023-03-29T03:55:08;4.20;;;1.17;;
60211;SDS011;46079;48.686;15.598;2023-03-29T03:57:35;3.53;;;1.00;;
60211;SDS011;46079;48.686;15.598;2023-03-29T04:00:04;4.57;;;1.15;;
60211;SDS011;46079;48.686;15.598;2023-03-29T04:02:46;4.80;;;1.27;;
60211;SDS011;46079;48.686;15.598;2023-03-29T04:05:12;4.53;;;1.30;;
60211;SDS011;46079;48.686;15.598;2023-03-29T04:07:38;4.15;;;1.08;;
60211;SDS011;46079;48.686;15.598;2023-03-29T04:10:04;5.25;;;1.20;;
60211;SDS011;46079;48.686;15.598;2023-03-29T04:12:30;3.90;;;1.08;;
60211;SDS011;46079;48.686;15.598;2023-03-29T04:14:56;4.10;;;1.13;;
60211;SDS011;46079;48.686;15.598;2023-03-29T04:17:21;2.85;;;1.05;;
60211;SDS011;46079;48.686;15.598;2023-03-29T04:19:47;4.60;;;1.30;;
60211;SDS011;46079;48.686;15.598;2023-03-29T04:22:12;4.93;;;1.50;;
60211;SDS011;46079;48.686;15.598;2023-03-29T04:24:38;3.58;;;1.10;;
60211;SDS011;46079;48.686;15.598;2023-03-29T04:27:03;4.97;;;1.30;;
60211;SDS011;46079;48.686;15.598;2023-03-29T04:29:29;4.03;;;1.20;;
60211;SDS011;46079;48.686;15.598;2023-03-29T04:31:55;4.68;;;1.17;;
60211;SDS011;46079;48.686;15.598;2023-03-29T04:34:20;3.55;;;1.20;;
60211;SDS011;46079;48.686;15.598;2023-03-29T04:36:46;6.25;;;1.50;;
60211;SDS011;46079;48.686;15.598;2023-03-29T04:39:14;4.88;;;1.30;;
60211;SDS011;46079;48.686;15.598;2023-03-29T04:41:42;5.07;;;1.40;;
60211;SDS011;46079;48.686;15.598;2023-03-29T04:44:08;3.45;;;1.15;;
60211;SDS011;46079;48.686;15.598;2023-03-29T04:46:33;4.57;;;1.38;;
60211;SDS011;46079;48.686;15.598;2023-03-29T04:48:59;4.68;;;1.30;;
60211;SDS011;46079;48.686;15.598;2023-03-29T04:51:24;4.72;;;1.27;;
60211;SDS011;46079;48.686;15.598;2023-03-29T04:53:50;3.63;;;1.17;;
60211;SDS011;46079;48.686;15.598;2023-03-29T04:56:15;5.28;;;1.40;;
60211;SDS011;46079;48.686;15.598;2023-03-29T04:58:41;4.95;;;1.20;;
60211;SDS011;46079;48.686;15.598;2023-03-29T05:01:08;5.57;;;1.30;;
60211;SDS011;46079;48.686;15.598;2023-03-29T05:03:33;5.05;;;1.30;;
60211;SDS011;46079;48.686;15.598;2023-03-29T05:06:03;4.80;;;1.52;;
60211;SDS011;46079;48.686;15.598;2023-03-29T05:08:31;5.03;;;1.50;;
60211;SDS011;46079;48.686;15.598;2023-03-29T05:10:58;4.53;;;1.40;;
60211;SDS011;46079;48.686;15.598;2023-03-29T05:13:24;5.15;;;1.23;;
60211;SDS011;46079;48.686;15.598;2023-03-29T05:15:49;4.47;;;1.20;;
60211;SDS011;46079;48.686;15.598;2023-03-29T05:18:15;5.05;;;1.40;;
60211;SDS011;46079;48.686;15.598;2023-03-29T05:20:41;6.38;;;1.73;;
60211;SDS011;46079;48.686;15.598;2023-03-29T05:23:06;9.85;;;3.03;;
60211;SDS011;46079;48.686;15.598;2023-03-29T05:25:32;9.32;;;2.80;;
60211;SDS011;46079;48.686;15.598;2023-03-29T05:27:58;9.90;;;2.60;;
60211;SDS011;46079;48.686;15.598;2023-03-29T05:30:23;8.65;;;2.80;;
60211;SDS011;46079;48.686;15.598;2023-03-29T05:32:49;9.73;;;3.03;;
60211;SDS011;46079;48.686;15.598;2023-03-29T05:35:14;9.10;;;2.67;;
60211;SDS011;46079;48.686;15.598;2023-03-29T05:37:40;8.57;;;2.53;;
60211;SDS011;46079;48.686;15.598;2023-03-29T05:40:06;9.13;;;2.75;;
60211;SDS011;46079;48.686;15.598;2023-03-29T05:42:34;8.30;;;2.63;;
60211;SDS011;46079;48.686;15.598;2023-03-29T05:45:01;8.75;;;2.50;;
60211;SDS011;46079;48.686;15.598;2023-03-29T05:47:26;8.02;;;2.15;;
60211;SDS011;46079;48.686;15.598;2023-03-29T05:49:53;9.75;;;2.40;;
60211;SDS011;46079;48.686;15.598;2023-03-29T05:52:18;8.52;;;2.33;;
60211;SDS011;46079;48.686;15.598;2023-03-29T05:54:44;9.50;;;2.38;;
60211;SDS011;46079;48.686;15.598;2023-03-29T05:57:09;7.30;;;1.80;;
60211;SDS011;46079;48.686;15.598;2023-03-29T05:59:35;9.88;;;2.10;;
60211;SDS011;46079;48.686;15.598;2023-03-29T06:02:01;11.80;;;2.72;;
60211;SDS011;46079;48.686;15.598;2023-03-29T06:04:29;16.10;;;4.53;;
60211;SDS011;46079;48.686;15.598;2023-03-29T06:06:55;22.25;;;5.93;;
60211;SDS011;46079;48.686;15.598;2023-03-29T06:09:21;27.48;;;6.10;;
60211;SDS011;46079;48.686;15.598;2023-03-29T06:11:47;18.45;;;4.50;;
60211;SDS011;46079;48.686;15.598;2023-03-29T06:14:12;27.65;;;6.22;;
60211;SDS011;46079;48.686;15.598;2023-03-29T06:16:38;23.63;;;6.30;;
60211;SDS011;46079;48.686;15.598;2023-03-29T06:19:04;28.67;;;6.68;;
60211;SDS011;46079;48.686;15.598;2023-03-29T06:21:31;24.55;;;5.80;;
60211;SDS011;46079;48.686;15.598;2023-03-29T06:23:57;24.55;;;6.00;;
60211;SDS011;46079;48.686;15.598;2023-03-29T06:26:23;23.35;;;5.47;;
60211;SDS011;46079;48.686;15.598;2023-03-29T06:28:52;24.70;;;6.03;;
60211;SDS011;46079;48.686;15.598;2023-03-29T06:31:18;21.65;;;6.18;;
60211;SDS011;46079;48.686;15.598;2023-03-29T06:33:45;19.70;;;5.70;;
60211;SDS011;46079;48.686;15.598;2023-03-29T06:36:10;21.10;;;5.35;;
60211;SDS011;46079;48.686;15.598;2023-03-29T06:38:37;17.92;;;5.10;;
60211;SDS011;46079;48.686;15.598;2023-03-29T06:41:07;19.70;;;4.95;;
60211;SDS011;46079;48.686;15.598;2023-03-29T06:43:35;18.42;;;5.63;;
60211;SDS011;46079;48.686;15.598;2023-03-29T06:46:01;17.75;;;4.85;;
60211;SDS011;46079;48.686;15.598;2023-03-29T06:48:26;20.50;;;4.95;;
60211;SDS011;46079;48.686;15.598;2023-03-29T06:50:52;24.05;;;5.85;;
60211;SDS011;46079;48.686;15.598;2023-03-29T06:53:18;19.02;;;5.55;;
60211;SDS011;46079;48.686;15.598;2023-03-29T06:55:44;17.90;;;5.13;;
60211;SDS011;46079;48.686;15.598;2023-03-29T06:58:10;20.48;;;5.18;;
60211;SDS011;46079;48.686;15.598;2023-03-29T07:00:36;17.58;;;4.88;;
60211;SDS011;46079;48.686;15.598;2023-03-29T07:03:05;17.92;;;4.93;;
60211;SDS011;46079;48.686;15.598;2023-03-29T07:05:34;15.88;;;5.18;;
60211;SDS011;46079;48.686;15.598;2023-03-29T07:08:04;16.55;;;4.55;;
60211;SDS011;46079;48.686;15.598;2023-03-29T07:10:32;16.33;;;4.43;;
60211;SDS011;46079;48.686;15.598;2023-03-29T07:13:02;16.83;;;4.85;;
60211;SDS011;46079;48.686;15.598;2023-03-29T07:15:33;18.85;;;4.88;;
60211;SDS011;46079;48.686;15.598;2023-03-29T07:17:59;18.27;;;5.47;;
60211;SDS011;46079;48.686;15.598;2023-03-29T07:20:26;15.48;;;4.40;;
60211;SDS011;46079;48.686;15.598;2023-03-29T07:22:52;17.30;;;5.00;;
60211;SDS011;46079;48.686;15.598;2023-03-29T07:25:18;17.88;;;4.55;;
60211;SDS011;46079;48.686;15.598;2023-03-29T07:27:46;18.48;;;4.40;;
60211;SDS011;46079;48.686;15.598;2023-03-29T07:30:14;16.92;;;4.28;;
60211;SDS011;46079;48.686;15.598;2023-03-29T07:32:42;16.73;;;4.47;;
60211;SDS011;46079;48.686;15.598;2023-03-29T07:35:09;15.88;;;4.00;;
60211;SDS011;46079;48.686;15.598;2023-03-29T07:37:37;17.20;;;4.63;;
60211;SDS011;46079;48.686;15.598;2023-03-29T07:40:04;17.35;;;4.20;;
60211;SDS011;46079;48.686;15.598;2023-03-29T07:42:43;15.32;;;4.10;;
60211;SDS011;46079;48.686;15.598;2023-03-29T07:45:09;13.32;;;3.97;;
60211;SDS011;46079;48.686;15.598;2023-03-29T07:47:38;14.57;;;4.65;;
60211;SDS011;46079;48.686;15.598;2023-03-29T07:50:07;13.38;;;4.10;;
60211;SDS011;46079;48.686;15.598;2023-03-29T07:52:34;14.63;;;4.18;;
60211;SDS011;46079;48.686;15.598;2023-03-29T07:55:00;15.85;;;4.25;;
60211;SDS011;46079;48.686;15.598;2023-03-29T07:57:26;13.27;;;4.03;;
60211;SDS011;46079;48.686;15.598;2023-03-29T07:59:52;14.68;;;4.45;;
60211;SDS011;46079;48.686;15.598;2023-03-29T08:02:19;16.23;;;4.05;;
60211;SDS011;46079;48.686;15.598;2023-03-29T08:04:45;15.65;;;4.45;;
60211;SDS011;46079;48.686;15.598;2023-03-29T08:07:11;14.82;;;3.95;;
60211;SDS011;46079;48.686;15.598;2023-03-29T08:09:37;14.20;;;4.00;;
60211;SDS011;46079;48.686;15.598;2023-03-29T08:12:03;14.32;;;3.97;;
60211;SDS011;46079;48.686;15.598;2023-03-29T08:14:29;15.35;;;4.35;;
60211;SDS011;46079;48.686;15.598;2023-03-29T08:16:55;13.70;;;3.75;;
60211;SDS011;46079;48.686;15.598;2023-03-29T08:19:20;14.02;;;4.07;;
60211;SDS011;46079;48.686;15.598;2023-03-29T08:21:46;14.15;;;3.70;;
60211;SDS011;46079;48.686;15.598;2023-03-29T08:24:12;13.85;;;4.07;;
60211;SDS011;46079;48.686;15.598;2023-03-29T08:26:38;13.95;;;3.75;;
60211;SDS011;46079;48.686;15.598;2023-03-29T08:29:04;16.20;;;4.00;;
60211;SDS011;46079;48.686;15.598;2023-03-29T08:31:30;13.27;;;3.90;;
60211;SDS011;46079;48.686;15.598;2023-03-29T08:33:56;13.70;;;3.78;;
60211;SDS011;46079;48.686;15.598;2023-03-29T08:36:22;13.60;;;4.18;;
60211;SDS011;46079;48.686;15.598;2023-03-29T08:38:47;13.95;;;3.72;;
60211;SDS011;46079;48.686;15.598;2023-03-29T08:49:35;14.90;;;3.97;;
60211;SDS011;46079;48.686;15.598;2023-03-29T08:52:04;12.57;;;3.63;;
60211;SDS011;46079;48.686;15.598;2023-03-29T08:54:38;12.43;;;3.85;;
60211;SDS011;46079;48.686;15.598;2023-03-29T08:57:13;12.20;;;3.63;;
60211;SDS011;46079;48.686;15.598;2023-03-29T08:59:43;13.70;;;3.80;;
60211;SDS011;46079;48.686;15.598;2023-03-29T09:02:16;13.50;;;3.85;;
60211;SDS011;46079;48.686;15.598;2023-03-29T09:04:46;11.75;;;3.45;;
60211;SDS011;46079;48.686;15.598;2023-03-29T09:07:13;12.93;;;3.47;;
60211;SDS011;46079;48.686;15.598;2023-03-29T09:09:40;12.57;;;3.65;;
60211;SDS011;46079;48.686;15.598;2023-03-29T09:17:42;10.85;;;3.13;;
60211;SDS011;46079;48.686;15.598;2023-03-29T09:20:35;12.75;;;3.60;;
60211;SDS011;46079;48.686;15.598;2023-03-29T09:29:15;11.68;;;3.10;;
60211;SDS011;46079;48.686;15.598;2023-03-29T09:32:02;11.18;;;3.28;;
60211;SDS011;46079;48.686;15.598;2023-03-29T09:34:42;10.82;;;2.97;;
60211;SDS011;46079;48.686;15.598;2023-03-29T09:37:18;14.40;;;3.28;;
60211;SDS011;46079;48.686;15.598;2023-03-29T09:39:46;9.35;;;2.95;;
60211;SDS011;46079;48.686;15.598;2023-03-29T09:42:11;11.93;;;3.47;;
60211;SDS011;46079;48.686;15.598;2023-03-29T09:44:51;12.35;;;3.30;;
60211;SDS011;46079;48.686;15.598;2023-03-29T09:47:55;12.80;;;3.28;;
60211;SDS011;46079;48.686;15.598;2023-03-29T09:50:38;10.68;;;3.33;;
60211;SDS011;46079;48.686;15.598;2023-03-29T09:53:06;10.38;;;2.97;;
60211;SDS011;46079;48.686;15.598;2023-03-29T09:55:32;11.18;;;3.40;;
60211;SDS011;46079;48.686;15.598;2023-03-29T09:58:01;11.02;;;3.10;;
60211;SDS011;46079;48.686;15.598;2023-03-29T10:00:38;10.60;;;3.00;;
60211;SDS011;46079;48.686;15.598;2023-03-29T10:03:04;10.18;;;3.08;;
60211;SDS011;46079;48.686;15.598;2023-03-29T10:05:31;11.43;;;3.15;;
60211;SDS011;46079;48.686;15.598;2023-03-29T10:08:01;10.55;;;2.83;;
60211;SDS011;46079;48.686;15.598;2023-03-29T10:10:38;11.80;;;3.13;;
60211;SDS011;46079;48.686;15.598;2023-03-29T10:13:04;11.05;;;3.35;;
60211;SDS011;46079;48.686;15.598;2023-03-29T10:15:36;11.55;;;3.25;;
60211;SDS011;46079;48.686;15.598;2023-03-29T10:18:04;9.20;;;2.92;;
60211;SDS011;46079;48.686;15.598;2023-03-29T10:20:33;10.10;;;3.00;;
60211;SDS011;46079;48.686;15.598;2023-03-29T10:23:00;10.75;;;3.17;;
60211;SDS011;46079;48.686;15.598;2023-03-29T10:25:27;10.57;;;3.03;;
60211;SDS011;46079;48.686;15.598;2023-03-29T10:28:00;9.32;;;2.80;;
60211;SDS011;46079;48.686;15.598;2023-03-29T10:30:40;10.80;;;3.22;;
60211;SDS011;46079;48.686;15.598;2023-03-29T10:33:12;11.10;;;2.70;;
60211;SDS011;46079;48.686;15.598;2023-03-29T10:35:41;11.02;;;2.92;;
60211;SDS011;46079;48.686;15.598;2023-03-29T10:38:11;9.82;;;3.03;;
60211;SDS011;46079;48.686;15.598;2023-03-29T10:43:21;10.07;;;2.75;;
60211;SDS011;46079;48.686;15.598;2023-03-29T10:45:51;10.38;;;2.60;;
60211;SDS011;46079;48.686;15.598;2023-03-29T10:48:22;10.43;;;2.80;;
60211;SDS011;46079;48.686;15.598;2023-03-29T10:50:49;10.55;;;2.90;;
60211;SDS011;46079;48.686;15.598;2023-03-29T10:56:06;10.10;;;2.53;;
60211;SDS011;46079;48.686;15.598;2023-03-29T11:04:20;9.55;;;2.70;;
60211;SDS011;46079;48.686;15.598;2023-03-29T11:06:54;9.85;;;2.80;;
60211;SDS011;46079;48.686;15.598;2023-03-29T11:12:30;9.68;;;2.70;;
60211;SDS011;46079;48.686;15.598;2023-03-29T11:17:54;10.45;;;2.83;;
60211;SDS011;46079;48.686;15.598;2023-03-29T11:31:31;8.32;;;2.80;;
60211;SDS011;46079;48.686;15.598;2023-03-29T11:34:11;9.82;;;2.50;;
60211;SDS011;46079;48.686;15.598;2023-03-29T11:36:52;9.25;;;2.63;;
60211;SDS011;46079;48.686;15.598;2023-03-29T11:42:06;8.93;;;2.50;;
60211;SDS011;46079;48.686;15.598;2023-03-29T11:44:38;9.18;;;2.72;;
60211;SDS011;46079;48.686;15.598;2023-03-29T11:47:07;8.75;;;2.38;;
60211;SDS011;46079;48.686;15.598;2023-03-29T12:02:54;8.93;;;2.40;;
60211;SDS011;46079;48.686;15.598;2023-03-29T12:05:48;8.68;;;2.55;;
60211;SDS011;46079;48.686;15.598;2023-03-29T12:13:43;9.48;;;2.63;;
60211;SDS011;46079;48.686;15.598;2023-03-29T12:16:18;7.50;;;2.20;;
60211;SDS011;46079;48.686;15.598;2023-03-29T12:18:57;8.25;;;2.13;;
60211;SDS011;46079;48.686;15.598;2023-03-29T12:21:28;8.77;;;2.20;;
60211;SDS011;46079;48.686;15.598;2023-03-29T12:23:55;8.50;;;2.38;;
60211;SDS011;46079;48.686;15.598;2023-03-29T12:35:02;8.10;;;2.10;;
60211;SDS011;46079;48.686;15.598;2023-03-29T12:40:24;7.60;;;2.03;;
60211;SDS011;46079;48.686;15.598;2023-03-29T12:42:53;7.90;;;2.13;;
60211;SDS011;46079;48.686;15.598;2023-03-29T12:45:35;7.88;;;2.50;;
60211;SDS011;46079;48.686;15.598;2023-03-29T12:48:02;7.50;;;2.22;;
60211;SDS011;46079;48.686;15.598;2023-03-29T12:50:34;7.63;;;2.20;;
60211;SDS011;46079;48.686;15.598;2023-03-29T12:53:16;8.90;;;2.20;;
60211;SDS011;46079;48.686;15.598;2023-03-29T12:58:19;7.18;;;2.13;;
60211;SDS011;46079;48.686;15.598;2023-03-29T13:00:55;8.38;;;2.30;;
60211;SDS011;46079;48.686;15.598;2023-03-29T13:06:05;8.32;;;2.17;;
60211;SDS011;46079;48.686;15.598;2023-03-29T13:10:58;8.30;;;2.22;;
60211;SDS011;46079;48.686;15.598;2023-03-29T13:13:28;8.20;;;2.35;;
60211;SDS011;46079;48.686;15.598;2023-03-29T13:16:10;7.57;;;2.10;;
60211;SDS011;46079;48.686;15.598;2023-03-29T13:18:54;7.63;;;2.17;;
60211;SDS011;46079;48.686;15.598;2023-03-29T13:27:02;7.85;;;2.08;;
60211;SDS011;46079;48.686;15.598;2023-03-29T13:39:53;6.97;;;1.95;;
60211;SDS011;46079;48.686;15.598;2023-03-29T13:47:37;15.75;;;3.47;;
60211;SDS011;46079;48.686;15.598;2023-03-29T13:50:10;21.27;;;4.95;;
60211;SDS011;46079;48.686;15.598;2023-03-29T13:52:49;21.20;;;5.70;;
60211;SDS011;46079;48.686;15.598;2023-03-29T13:55:24;26.20;;;5.60;;
60211;SDS011;46079;48.686;15.598;2023-03-29T13:57:55;25.45;;;6.18;;
60211;SDS011;46079;48.686;15.598;2023-03-29T14:00:26;23.55;;;5.38;;
60211;SDS011;46079;48.686;15.598;2023-03-29T14:03:01;22.55;;;5.93;;
60211;SDS011;46079;48.686;15.598;2023-03-29T14:05:32;29.48;;;6.60;;
60211;SDS011;46079;48.686;15.598;2023-03-29T14:08:20;23.83;;;5.80;;
60211;SDS011;46079;48.686;15.598;2023-03-29T14:10:50;25.73;;;6.07;;
60211;SDS011;46079;48.686;15.598;2023-03-29T14:13:18;27.95;;;6.40;;
60211;SDS011;46079;48.686;15.598;2023-03-29T14:15:57;23.10;;;6.00;;
60211;SDS011;46079;48.686;15.598;2023-03-29T14:18:40;25.33;;;6.47;;
60211;SDS011;46079;48.686;15.598;2023-03-29T14:21:10;26.70;;;6.30;;
60211;SDS011;46079;48.686;15.598;2023-03-29T14:23:37;24.85;;;6.20;;
60211;SDS011;46079;48.686;15.598;2023-03-29T14:26:12;23.85;;;5.93;;
60211;SDS011;46079;48.686;15.598;2023-03-29T14:28:46;21.35;;;4.95;;
60211;SDS011;46079;48.686;15.598;2023-03-29T14:31:17;20.85;;;5.25;;
60211;SDS011;46079;48.686;15.598;2023-03-29T14:33:50;21.02;;;5.78;;
60211;SDS011;46079;48.686;15.598;2023-03-29T14:36:26;18.23;;;5.80;;
60211;SDS011;46079;48.686;15.598;2023-03-29T14:38:54;18.10;;;5.53;;
60211;SDS011;46079;48.686;15.598;2023-03-29T14:41:27;16.67;;;5.05;;
60211;SDS011;46079;48.686;15.598;2023-03-29T14:44:00;18.65;;;5.00;;
60211;SDS011;46079;48.686;15.598;2023-03-29T14:46:28;19.40;;;5.32;;
60211;SDS011;46079;48.686;15.598;2023-03-29T14:48:54;23.65;;;6.20;;
60211;SDS011;46079;48.686;15.598;2023-03-29T14:51:20;20.30;;;5.60;;
60211;SDS011;46079;48.686;15.598;2023-03-29T14:53:51;19.33;;;4.95;;
60211;SDS011;46079;48.686;15.598;2023-03-29T14:56:17;19.67;;;4.53;;
60211;SDS011;46079;48.686;15.598;2023-03-29T14:58:48;17.35;;;5.10;;
60211;SDS011;46079;48.686;15.598;2023-03-29T15:01:15;16.70;;;5.00;;
60211;SDS011;46079;48.686;15.598;2023-03-29T15:03:48;20.25;;;5.38;;
60211;SDS011;46079;48.686;15.598;2023-03-29T15:06:17;17.48;;;4.88;;
60211;SDS011;46079;48.686;15.598;2023-03-29T15:08:43;18.00;;;4.78;;
60211;SDS011;46079;48.686;15.598;2023-03-29T15:11:11;18.13;;;4.88;;
60211;SDS011;46079;48.686;15.598;2023-03-29T15:13:42;18.27;;;5.20;;
60211;SDS011;46079;48.686;15.598;2023-03-29T15:16:10;16.42;;;4.63;;
60211;SDS011;46079;48.686;15.598;2023-03-29T15:18:39;19.35;;;4.65;;
60211;SDS011;46079;48.686;15.598;2023-03-29T15:21:07;18.08;;;4.93;;
60211;SDS011;46079;48.686;15.598;2023-03-29T15:23:39;15.00;;;4.75;;
60211;SDS011;46079;48.686;15.598;2023-03-29T15:26:13;16.83;;;4.53;;
60211;SDS011;46079;48.686;15.598;2023-03-29T15:28:51;14.20;;;4.10;;
60211;SDS011;46079;48.686;15.598;2023-03-29T15:31:20;15.90;;;4.40;;
60211;SDS011;46079;48.686;15.598;2023-03-29T15:34:00;15.25;;;4.32;;
60211;SDS011;46079;48.686;15.598;2023-03-29T15:36:27;18.95;;;5.20;;
60211;SDS011;46079;48.686;15.598;2023-03-29T15:38:53;15.27;;;4.18;;
60211;SDS011;46079;48.686;15.598;2023-03-29T15:41:18;15.95;;;4.30;;
60211;SDS011;46079;48.686;15.598;2023-03-29T15:43:44;20.83;;;4.70;;
60211;SDS011;46079;48.686;15.598;2023-03-29T15:46:11;14.43;;;3.97;;
60211;SDS011;46079;48.686;15.598;2023-03-29T15:48:37;17.65;;;4.30;;
60211;SDS011;46079;48.686;15.598;2023-03-29T15:51:03;18.10;;;4.57;;
60211;SDS011;46079;48.686;15.598;2023-03-29T15:53:29;15.15;;;4.03;;
60211;SDS011;46079;48.686;15.598;2023-03-29T15:55:57;16.15;;;4.22;;
60211;SDS011;46079;48.686;15.598;2023-03-29T15:58:25;12.75;;;4.28;;
60211;SDS011;46079;48.686;15.598;2023-03-29T16:03:47;15.48;;;4.28;;
60211;SDS011;46079;48.686;15.598;2023-03-29T16:06:13;17.02;;;4.30;;
60211;SDS011;46079;48.686;15.598;2023-03-29T16:08:41;14.38;;;4.05;;
60211;SDS011;46079;48.686;15.598;2023-03-29T16:11:06;14.95;;;3.75;;
60211;SDS011;46079;48.686;15.598;2023-03-29T16:13:32;14.55;;;4.13;;
60211;SDS011;46079;48.686;15.598;2023-03-29T16:15:57;14.13;;;3.97;;
60211;SDS011;46079;48.686;15.598;2023-03-29T16:18:23;16.25;;;4.05;;
60211;SDS011;46079;48.686;15.598;2023-03-29T16:20:48;15.43;;;4.15;;
60211;SDS011;46079;48.686;15.598;2023-03-29T16:23:13;14.70;;;3.90;;
60211;SDS011;46079;48.686;15.598;2023-03-29T16:25:39;14.93;;;4.00;;
60211;SDS011;46079;48.686;15.598;2023-03-29T16:28:05;16.90;;;4.32;;
60211;SDS011;46079;48.686;15.598;2023-03-29T16:30:33;13.75;;;3.50;;
60211;SDS011;46079;48.686;15.598;2023-03-29T16:33:00;14.60;;;4.25;;
60211;SDS011;46079;48.686;15.598;2023-03-29T16:35:30;12.93;;;3.75;;
60211;SDS011;46079;48.686;15.598;2023-03-29T16:37:57;15.05;;;4.20;;
60211;SDS011;46079;48.686;15.598;2023-03-29T16:40:24;13.48;;;4.10;;
60211;SDS011;46079;48.686;15.598;2023-03-29T16:42:50;15.43;;;4.10;;
60211;SDS011;46079;48.686;15.598;2023-03-29T16:45:16;14.30;;;4.32;;
60211;SDS011;46079;48.686;15.598;2023-03-29T16:47:42;15.88;;;3.95;;
60211;SDS011;46079;48.686;15.598;2023-03-29T16:50:12;15.57;;;3.67;;
60211;SDS011;46079;48.686;15.598;2023-03-29T16:52:39;14.65;;;3.95;;
60211;SDS011;46079;48.686;15.598;2023-03-29T16:55:06;12.27;;;3.45;;
60211;SDS011;46079;48.686;15.598;2023-03-29T16:57:33;15.63;;;4.30;;
60211;SDS011;46079;48.686;15.598;2023-03-29T16:59:58;12.40;;;3.53;;
60211;SDS011;46079;48.686;15.598;2023-03-29T17:02:25;11.65;;;3.92;;